createdAt,value
2023-05-21T00:00:32.457Z,49.06
2023-05-21T00:03:00.418Z,48.42
2023-05-21T00:05:28.020Z,48.03
2023-05-21T00:07:55.513Z,48.63
2023-05-21T00:10:23.236Z,48.94
2023-05-21T00:12:50.834Z,48.39
2023-05-21T00:15:18.330Z,48.49
2023-05-21T00:17:46.232Z,48.53
2023-05-21T00:20:13.959Z,48.81
2023-05-21T00:22:42.525Z,49.05
2023-05-21T00:25:11.359Z,49.15
2023-05-21T00:27:38.856Z,49.52
2023-05-21T00:30:07.063Z,49.22
2023-05-21T00:32:35.293Z,49.40
2023-05-21T00:35:03.015Z,49.42
2023-05-21T00:37:34.448Z,49.42
2023-05-21T00:40:02.781Z,48.93
2023-05-21T00:42:30.797Z,48.48
2023-05-21T00:44:58.413Z,48.34
2023-05-21T00:47:29.761Z,48.30
2023-05-21T00:49:57.345Z,48.40
2023-05-21T00:52:27.051Z,48.22
2023-05-21T00:54:55.273Z,48.05
2023-05-21T00:57:27.203Z,47.50
2023-05-21T00:59:55.146Z,47.62
2023-05-21T01:02:24.419Z,47.83
2023-05-21T01:04:55.203Z,47.60
2023-05-21T01:07:23.416Z,47.66
2023-05-21T01:09:51.135Z,47.31
2023-05-21T01:12:18.953Z,47.39
2023-05-21T01:14:47.119Z,48.19
2023-05-21T01:17:15.716Z,48.57
2023-05-21T01:19:44.574Z,48.60
2023-05-21T01:22:14.290Z,47.94
2023-05-21T01:24:48.366Z,48.07
2023-05-21T01:27:16.445Z,47.74
2023-05-21T01:29:43.919Z,47.49
2023-05-21T01:32:35.621Z,48.05
2023-05-21T01:35:36.571Z,47.63
2023-05-21T01:38:04.420Z,47.71
2023-05-21T01:40:38.963Z,47.45
2023-05-21T01:43:07.571Z,47.20
2023-05-21T01:45:37.132Z,47.72
2023-05-21T01:48:06.251Z,47.83
2023-05-21T01:50:34.531Z,48.13
2023-05-21T01:53:03.919Z,48.10
2023-05-21T01:55:32.208Z,48.64
2023-05-21T01:58:02.052Z,48.44
2023-05-21T02:00:32.397Z,48.62
2023-05-21T02:03:00.605Z,49.22
2023-05-21T02:05:28.209Z,50.07
2023-05-21T02:07:57.076Z,50.17
2023-05-21T02:10:24.943Z,51.13
2023-05-21T02:12:52.689Z,49.72
2023-05-21T02:15:20.400Z,50.29
2023-05-21T02:17:51.408Z,50.01
2023-05-21T02:20:19.827Z,49.95
2023-05-21T02:22:48.727Z,50.92
2023-05-21T02:25:18.366Z,50.58
2023-05-21T02:27:47.077Z,51.84
2023-05-21T02:30:16.085Z,51.41
2023-05-21T02:32:43.729Z,50.38
2023-05-21T02:35:12.772Z,49.90
2023-05-21T02:37:40.722Z,49.07
2023-05-21T02:40:10.184Z,49.17
2023-05-21T02:42:40.265Z,49.23
2023-05-21T02:45:09.702Z,48.63
2023-05-21T02:47:38.468Z,48.57
2023-05-21T02:50:09.087Z,48.82
2023-05-21T02:52:37.272Z,48.25
2023-05-21T02:55:05.240Z,48.38
2023-05-21T02:57:32.977Z,48.21
2023-05-21T03:00:00.509Z,48.66
2023-05-21T03:02:28.125Z,48.53
2023-05-21T03:04:56.020Z,48.55
2023-05-21T03:07:24.380Z,48.28
2023-05-21T03:09:51.925Z,48.19
2023-05-21T03:12:19.699Z,48.67
2023-05-21T03:14:51.431Z,48.72
2023-05-21T03:17:20.760Z,48.89
2023-05-21T03:19:49.264Z,49.24
2023-05-21T03:22:16.847Z,49.74
2023-05-21T03:24:45.355Z,49.14
2023-05-21T03:27:13.584Z,48.92
2023-05-21T03:29:41.081Z,48.91
2023-05-21T03:32:08.967Z,48.99
2023-05-21T03:34:37.433Z,49.19
2023-05-21T03:37:05.093Z,48.33
2023-05-21T03:39:32.667Z,48.33
2023-05-21T03:42:00.525Z,48.50
2023-05-21T03:44:29.636Z,48.68
2023-05-21T03:46:57.496Z,48.13
2023-05-21T03:49:26.805Z,48.96
2023-05-21T03:51:54.474Z,49.22
2023-05-21T03:54:22.154Z,49.25
2023-05-21T03:56:50.460Z,49.54
2023-05-21T03:59:18.525Z,48.91
2023-05-21T04:01:46.219Z,48.50
2023-05-21T04:04:15.401Z,48.89
2023-05-21T04:06:43.032Z,49.24
2023-05-21T04:09:10.652Z,49.02
2023-05-21T04:11:38.356Z,48.64
2023-05-21T04:14:06.359Z,49.18
2023-05-21T04:16:35.517Z,50.20
2023-05-21T04:19:05.095Z,51.83
2023-05-21T04:21:32.584Z,51.29
2023-05-21T04:24:00.980Z,51.78
2023-05-21T04:26:29.579Z,52.35
2023-05-21T04:28:59.469Z,52.57
2023-05-21T04:31:27.089Z,52.45
2023-05-21T04:33:54.855Z,51.88
2023-05-21T04:36:22.343Z,51.66
2023-05-21T04:38:49.917Z,49.50
2023-05-21T04:41:19.142Z,50.00
2023-05-21T04:43:47.064Z,50.13
2023-05-21T04:46:14.929Z,49.36
2023-05-21T04:48:42.914Z,49.13
2023-05-21T04:51:11.070Z,49.68
2023-05-21T04:53:38.908Z,49.16
2023-05-21T04:56:07.313Z,48.91
2023-05-21T04:58:34.805Z,49.43
2023-05-21T05:01:04.191Z,50.22
2023-05-21T05:03:32.061Z,50.04
2023-05-21T05:06:00.356Z,49.96
2023-05-21T05:08:27.828Z,49.34
2023-05-21T05:10:55.909Z,48.95
2023-05-21T05:13:23.388Z,48.04
2023-05-21T05:15:54.436Z,47.08
2023-05-21T05:18:22.610Z,47.94
2023-05-21T05:20:50.062Z,47.62
2023-05-21T05:23:17.708Z,48.37
2023-05-21T05:25:45.620Z,47.82
2023-05-21T05:28:13.122Z,47.70
2023-05-21T05:30:40.797Z,47.79
2023-05-21T05:33:09.331Z,48.71
2023-05-21T05:35:37.016Z,48.31
2023-05-21T05:38:05.324Z,46.87
2023-05-21T05:40:33.347Z,47.64
2023-05-21T05:43:00.906Z,47.03
2023-05-21T05:45:28.436Z,47.32
2023-05-21T05:47:56.852Z,47.48
2023-05-21T05:50:24.487Z,47.67
2023-05-21T05:52:52.665Z,46.40
2023-05-21T05:55:22.063Z,46.23
2023-05-21T05:57:49.645Z,46.75
2023-05-21T06:00:17.735Z,46.78
2023-05-21T06:02:46.001Z,45.72
2023-05-21T06:05:13.549Z,45.41
2023-05-21T06:07:41.344Z,44.84
2023-05-21T06:10:09.542Z,44.43
2023-05-21T06:12:37.095Z,44.83
2023-05-21T06:15:06.174Z,45.27
2023-05-21T06:17:34.747Z,45.50
2023-05-21T06:20:02.737Z,44.64
2023-05-21T06:22:31.416Z,44.66
2023-05-21T06:24:59.148Z,43.79
2023-05-21T06:27:26.837Z,45.07
2023-05-21T06:29:54.367Z,44.53
2023-05-21T06:32:23.098Z,43.99
2023-05-21T06:34:51.025Z,43.60
2023-05-21T06:37:21.084Z,44.87
2023-05-21T06:39:49.079Z,43.91
2023-05-21T06:42:17.077Z,43.64
2023-05-21T06:44:44.824Z,42.90
2023-05-21T06:47:13.140Z,42.34
2023-05-21T06:49:40.674Z,42.85
2023-05-21T06:52:08.618Z,43.00
2023-05-21T06:54:36.412Z,43.70
2023-05-21T06:57:03.927Z,43.72
2023-05-21T06:59:31.802Z,43.19
2023-05-21T07:01:59.973Z,42.53
2023-05-21T07:04:28.176Z,42.89
2023-05-21T07:06:55.625Z,42.05
2023-05-21T07:09:24.171Z,41.81
2023-05-21T07:11:53.296Z,42.87
2023-05-21T07:14:21.966Z,41.72
2023-05-21T07:16:51.278Z,43.28
2023-05-21T07:19:18.814Z,44.29
2023-05-21T07:21:46.485Z,42.86
2023-05-21T07:24:14.240Z,42.21
2023-05-21T07:26:42.576Z,42.45
2023-05-21T07:29:11.332Z,42.79
2023-05-21T07:31:39.196Z,41.14
2023-05-21T07:34:06.956Z,42.67
2023-05-21T07:36:34.526Z,41.23
2023-05-21T07:39:02.561Z,40.73
2023-05-21T07:41:30.340Z,41.65
2023-05-21T07:43:58.538Z,40.90
2023-05-21T07:46:26.318Z,40.88
2023-05-21T07:48:54.314Z,41.23
2023-05-21T07:51:22.015Z,41.27
2023-05-21T07:53:50.511Z,40.54
2023-05-21T07:56:18.442Z,42.41
2023-05-21T07:58:46.075Z,41.27
2023-05-21T08:01:14.892Z,42.09
2023-05-21T08:03:43.142Z,41.49
2023-05-21T08:06:10.858Z,41.18
2023-05-21T08:08:38.429Z,40.44
2023-05-21T08:11:06.507Z,40.30
2023-05-21T08:13:34.433Z,40.20
2023-05-21T08:16:02.074Z,41.95
2023-05-21T08:18:29.984Z,40.57
2023-05-21T08:20:57.600Z,39.74
2023-05-21T08:23:27.161Z,38.69
2023-05-21T08:25:55.020Z,38.79
2023-05-21T08:28:23.396Z,41.30
2023-05-21T08:30:52.038Z,39.33
2023-05-21T08:33:22.343Z,39.79
2023-05-21T08:35:49.856Z,39.57
2023-05-21T08:38:17.872Z,40.27
2023-05-21T08:40:51.537Z,39.60
2023-05-21T08:43:19.192Z,39.63
2023-05-21T08:45:54.976Z,40.10
2023-05-21T08:48:24.049Z,39.45
2023-05-21T08:50:53.001Z,39.53
2023-05-21T08:53:28.201Z,38.81
2023-05-21T08:55:57.484Z,40.37
2023-05-21T08:58:25.967Z,39.56
2023-05-21T09:00:55.245Z,39.53
2023-05-21T09:03:24.894Z,38.71
2023-05-21T09:05:53.225Z,39.89
2023-05-21T09:08:32.052Z,39.78
2023-05-21T09:11:02.528Z,40.14
2023-05-21T09:13:36.865Z,39.06
2023-05-21T09:16:07.211Z,39.32
2023-05-21T09:18:34.723Z,39.28
2023-05-21T09:21:24.756Z,39.34
2023-05-21T09:23:57.346Z,37.58
2023-05-21T09:26:25.901Z,37.31
2023-05-21T09:28:58.327Z,38.11
2023-05-21T09:31:27.172Z,37.10
2023-05-21T09:33:58.628Z,37.13
2023-05-21T09:36:27.132Z,35.34
2023-05-21T09:38:55.011Z,36.33
2023-05-21T09:41:32.134Z,36.15
2023-05-21T09:44:01.684Z,37.80
2023-05-21T09:46:41.174Z,37.01
2023-05-21T09:49:36.901Z,36.72
2023-05-21T09:52:05.556Z,37.96
2023-05-21T09:54:34.600Z,36.90
2023-05-21T09:57:05.145Z,36.05
2023-05-21T09:59:39.523Z,35.66
2023-05-21T10:02:23.422Z,34.75
2023-05-21T10:04:52.948Z,35.16
2023-05-21T10:07:28.392Z,34.67
2023-05-21T10:09:57.525Z,34.26
2023-05-21T10:12:25.786Z,33.47
2023-05-21T10:15:15.334Z,34.50
2023-05-21T10:17:44.603Z,34.39
2023-05-21T10:20:12.990Z,33.75
2023-05-21T10:22:41.058Z,33.68
2023-05-21T10:25:09.021Z,33.04
2023-05-21T10:27:37.335Z,33.77
2023-05-21T10:30:08.662Z,33.39
2023-05-21T10:32:36.681Z,33.54
2023-05-21T10:35:04.694Z,33.19
2023-05-21T10:37:32.170Z,33.68
2023-05-21T10:40:00.116Z,30.66
2023-05-21T10:42:30.588Z,31.79
2023-05-21T10:45:04.088Z,33.22
2023-05-21T10:47:44.148Z,32.37
2023-05-21T10:51:01.758Z,32.66
2023-05-21T10:53:37.849Z,31.42
2023-05-21T10:56:17.959Z,31.75
2023-05-21T10:58:59.176Z,31.59
2023-05-21T11:01:29.226Z,32.32
2023-05-21T11:03:57.916Z,31.45
2023-05-21T11:06:26.636Z,32.76
2023-05-21T11:08:55.592Z,32.52
2023-05-21T11:11:43.601Z,32.70
2023-05-21T11:14:35.589Z,32.27
2023-05-21T11:17:09.869Z,32.37
2023-05-21T11:19:39.206Z,32.77
2023-05-21T11:22:08.419Z,32.39
2023-05-21T11:24:40.418Z,30.85
2023-05-21T11:27:08.792Z,30.79
2023-05-21T11:29:41.147Z,32.06
2023-05-21T11:32:10.685Z,31.75
2023-05-21T11:34:46.167Z,31.63
2023-05-21T11:37:37.176Z,31.59
2023-05-21T11:40:18.463Z,31.37
2023-05-21T11:42:51.508Z,30.50
2023-05-21T11:45:20.131Z,30.41
2023-05-21T11:47:49.568Z,30.43
2023-05-21T11:50:17.607Z,30.66
2023-05-21T11:52:45.810Z,30.86
2023-05-21T11:55:15.553Z,29.52
2023-05-21T11:57:44.813Z,29.20
2023-05-21T12:00:15.463Z,29.71
2023-05-21T12:02:50.343Z,30.25
2023-05-21T12:05:18.130Z,30.05
2023-05-21T12:07:52.028Z,30.42
2023-05-21T12:10:23.958Z,29.30
2023-05-21T12:12:55.580Z,30.25
2023-05-21T12:15:25.966Z,29.53
2023-05-21T12:17:54.911Z,28.72
2023-05-21T12:20:23.288Z,31.41
2023-05-21T12:22:50.864Z,30.50
2023-05-21T12:25:22.797Z,29.67
2023-05-21T12:27:57.917Z,30.73
2023-05-21T12:30:26.390Z,31.33
2023-05-21T12:32:54.159Z,30.99
2023-05-21T12:35:23.628Z,30.45
2023-05-21T12:37:52.433Z,30.67
2023-05-21T12:40:20.269Z,30.05
2023-05-21T12:42:47.913Z,31.01
2023-05-21T12:45:18.753Z,31.08
2023-05-21T12:47:50.311Z,31.09
2023-05-21T12:50:20.746Z,30.78
2023-05-21T12:52:48.214Z,31.20
2023-05-21T12:55:15.900Z,30.93
2023-05-21T12:57:44.034Z,30.70
2023-05-21T13:00:12.129Z,30.70
2023-05-21T13:02:44.440Z,31.04
2023-05-21T13:05:18.766Z,31.69
2023-05-21T13:07:47.424Z,31.62
2023-05-21T13:10:16.856Z,32.30
2023-05-21T13:12:45.139Z,32.40
2023-05-21T13:15:12.783Z,30.56
2023-05-21T13:17:40.653Z,30.15
2023-05-21T13:20:09.912Z,30.43
2023-05-21T13:22:46.957Z,30.19
2023-05-21T13:25:18.304Z,30.18
2023-05-21T13:27:46.496Z,30.26
2023-05-21T13:30:14.033Z,30.25
2023-05-21T13:32:42.422Z,30.83
2023-05-21T13:35:11.275Z,31.29
2023-05-21T13:37:40.039Z,30.46
2023-05-21T13:40:11.280Z,31.01
2023-05-21T13:42:38.952Z,30.69
2023-05-21T13:45:11.578Z,29.99
2023-05-21T13:47:40.462Z,29.03
2023-05-21T13:50:09.120Z,30.79
2023-05-21T13:52:37.417Z,29.46
2023-05-21T13:55:05.969Z,29.10
2023-05-21T13:57:33.744Z,29.39
2023-05-21T14:00:01.516Z,29.25
2023-05-21T14:02:32.721Z,29.75
2023-05-21T14:05:00.904Z,30.93
2023-05-21T14:07:28.463Z,30.36
2023-05-21T14:09:56.813Z,31.12
2023-05-21T14:12:24.595Z,29.63
2023-05-21T14:14:52.119Z,28.53
2023-05-21T14:17:19.718Z,28.73
2023-05-21T14:19:48.153Z,29.61
2023-05-21T14:22:15.761Z,29.71
2023-05-21T14:24:43.229Z,28.56
2023-05-21T14:27:12.589Z,29.29
2023-05-21T14:29:41.388Z,29.38
2023-05-21T14:32:08.941Z,28.24
2023-05-21T14:34:38.563Z,28.24
2023-05-21T14:37:06.219Z,27.29
2023-05-21T14:39:33.693Z,27.52
2023-05-21T14:42:04.699Z,27.73
2023-05-21T14:44:32.623Z,27.66
2023-05-21T14:47:00.332Z,28.42
2023-05-21T14:49:28.175Z,27.91
2023-05-21T14:51:55.884Z,28.88
2023-05-21T14:54:23.317Z,28.72
2023-05-21T14:56:51.096Z,28.32
2023-05-21T14:59:18.690Z,29.59
2023-05-21T15:01:46.296Z,28.94
2023-05-21T15:04:14.232Z,28.98
2023-05-21T15:06:42.156Z,28.23
2023-05-21T15:09:09.644Z,28.33
2023-05-21T15:11:38.957Z,29.11
2023-05-21T15:14:06.418Z,28.88
2023-05-21T15:16:33.966Z,28.67
2023-05-21T15:19:01.811Z,28.89
2023-05-21T15:21:29.371Z,28.56
2023-05-21T15:23:56.925Z,28.96
2023-05-21T15:26:26.959Z,28.94
2023-05-21T15:28:54.536Z,29.07
2023-05-21T15:31:22.081Z,29.75
2023-05-21T15:33:49.919Z,30.23
2023-05-21T15:36:17.692Z,29.86
2023-05-21T15:38:45.126Z,30.11
2023-05-21T15:41:12.846Z,31.02
2023-05-21T15:43:42.179Z,29.93
2023-05-21T15:46:11.228Z,30.91
2023-05-21T15:48:39.161Z,30.19
2023-05-21T15:51:06.695Z,29.71
2023-05-21T15:53:34.244Z,29.86
2023-05-21T15:56:03.337Z,30.07
2023-05-21T15:58:31.304Z,30.05
2023-05-21T16:00:59.069Z,30.04
2023-05-21T16:03:26.985Z,29.27
2023-05-21T16:05:54.539Z,29.62
2023-05-21T16:08:22.078Z,29.85
2023-05-21T16:10:49.868Z,29.75
2023-05-21T16:13:17.334Z,30.15
2023-05-21T16:15:44.813Z,29.85
2023-05-21T16:18:12.632Z,30.16
2023-05-21T16:20:40.216Z,30.26
2023-05-21T16:23:07.693Z,30.27
2023-05-21T16:25:36.584Z,30.00
2023-05-21T16:28:04.543Z,30.29
2023-05-21T16:30:32.061Z,31.05
2023-05-21T16:32:59.823Z,31.45
2023-05-21T16:35:27.436Z,30.88
2023-05-21T16:37:54.955Z,30.82
2023-05-21T16:40:22.745Z,31.66
2023-05-21T16:42:50.223Z,31.99
2023-05-21T16:45:20.758Z,31.77
2023-05-21T16:47:49.648Z,31.72
2023-05-21T16:50:18.970Z,30.96
2023-05-21T16:52:46.496Z,30.91
2023-05-21T16:55:14.221Z,31.10
2023-05-21T16:57:41.723Z,32.77
2023-05-21T17:00:09.536Z,31.88
2023-05-21T17:02:37.354Z,32.05
2023-05-21T17:05:05.140Z,31.52
2023-05-21T17:07:32.753Z,31.83
2023-05-21T17:10:00.505Z,31.47
2023-05-21T17:12:28.002Z,31.84
2023-05-21T17:14:55.542Z,31.61
2023-05-21T17:17:23.322Z,31.80
2023-05-21T17:19:50.778Z,31.96
2023-05-21T17:22:18.600Z,32.50
2023-05-21T17:24:46.353Z,31.88
2023-05-21T17:27:13.940Z,31.99
2023-05-21T17:29:42.412Z,32.51
2023-05-21T17:32:10.399Z,32.30
2023-05-21T17:34:38.431Z,32.20
2023-05-21T17:37:06.234Z,32.01
2023-05-21T17:39:34.469Z,32.07
2023-05-21T17:42:02.131Z,32.14
2023-05-21T17:44:29.575Z,32.02
2023-05-21T17:46:57.613Z,31.55
2023-05-21T17:49:25.288Z,31.74
2023-05-21T17:51:53.473Z,31.89
2023-05-21T17:54:21.549Z,32.03
2023-05-21T17:56:49.032Z,32.25
2023-05-21T17:59:16.851Z,32.60
2023-05-21T18:01:44.651Z,32.65
2023-05-21T18:04:13.389Z,33.04
2023-05-21T18:06:41.052Z,33.13
2023-05-21T18:09:10.537Z,33.28
2023-05-21T18:11:39.087Z,33.53
2023-05-21T18:14:06.617Z,33.68
2023-05-21T18:16:34.186Z,34.20
2023-05-21T18:19:05.731Z,34.36
2023-05-21T18:21:36.805Z,34.58
2023-05-21T18:24:06.200Z,35.36
2023-05-21T18:26:33.761Z,36.05
2023-05-21T18:29:01.478Z,35.80
2023-05-21T18:31:29.288Z,36.38
2023-05-21T18:33:56.808Z,37.31
2023-05-21T18:36:24.287Z,38.09
2023-05-21T18:38:52.343Z,38.76
2023-05-21T18:41:23.036Z,38.96
2023-05-21T18:43:51.068Z,39.22
2023-05-21T18:46:19.519Z,39.62
2023-05-21T18:48:48.643Z,39.83
2023-05-21T18:51:16.141Z,39.90
2023-05-21T18:53:44.412Z,39.93
2023-05-21T18:56:11.972Z,40.57
2023-05-21T18:58:39.830Z,41.19
2023-05-21T19:01:07.653Z,41.57
2023-05-21T19:03:35.125Z,41.44
2023-05-21T19:06:03.592Z,42.30
2023-05-21T19:08:31.386Z,41.78
2023-05-21T19:10:59.152Z,41.74
2023-05-21T19:13:26.671Z,41.98
2023-05-21T19:15:54.616Z,42.44
2023-05-21T19:18:22.440Z,42.80
2023-05-21T19:20:50.062Z,42.91
2023-05-21T19:23:18.134Z,43.00
2023-05-21T19:25:45.682Z,42.95
2023-05-21T19:28:13.409Z,43.00
2023-05-21T19:30:41.189Z,43.00
2023-05-21T19:33:08.727Z,43.17
2023-05-21T19:35:37.809Z,43.44
2023-05-21T19:38:05.722Z,43.92
2023-05-21T19:40:33.627Z,44.31
2023-05-21T19:43:01.350Z,44.50
2023-05-21T19:45:29.445Z,44.75
2023-05-21T19:47:57.159Z,44.87
2023-05-21T19:50:24.937Z,44.84
2023-05-21T19:52:53.685Z,44.99
2023-05-21T19:55:23.059Z,45.11
2023-05-21T19:57:50.878Z,45.09
2023-05-21T20:00:19.302Z,45.07
2023-05-21T20:02:47.158Z,45.10
2023-05-21T20:05:14.941Z,45.24
2023-05-21T20:07:42.632Z,45.43
2023-05-21T20:10:10.600Z,45.74
2023-05-21T20:12:38.411Z,45.78
2023-05-21T20:15:06.997Z,46.07
2023-05-21T20:17:36.018Z,45.83
2023-05-21T20:20:11.242Z,45.80
2023-05-21T20:22:39.072Z,45.91
2023-05-21T20:25:08.481Z,45.98
2023-05-21T20:27:38.612Z,46.18
2023-05-21T20:30:07.598Z,46.35
2023-05-21T20:32:35.369Z,46.51
2023-05-21T20:35:04.007Z,47.42
2023-05-21T20:37:34.851Z,46.69
2023-05-21T20:40:02.336Z,46.77
2023-05-21T20:42:34.372Z,46.92
2023-05-21T20:45:03.103Z,46.81
2023-05-21T20:47:32.051Z,46.97
2023-05-21T20:50:00.106Z,46.90
2023-05-21T20:52:27.974Z,47.28
2023-05-21T20:54:55.527Z,47.44
2023-05-21T20:57:24.044Z,47.04
2023-05-21T20:59:53.063Z,47.25
2023-05-21T21:02:21.301Z,47.41
2023-05-21T21:04:49.887Z,47.56
2023-05-21T21:07:18.357Z,47.28
2023-05-21T21:09:49.253Z,47.44
2023-05-21T21:14:47.576Z,47.37
2023-05-21T21:17:15.094Z,47.78
2023-05-21T21:19:42.604Z,47.79
2023-05-21T21:22:10.380Z,47.83
2023-05-21T21:24:37.916Z,47.99
2023-05-21T21:27:06.116Z,47.91
2023-05-21T21:29:33.860Z,47.91
2023-05-21T21:32:01.512Z,47.95
2023-05-21T21:34:29.086Z,47.84
2023-05-21T21:36:56.795Z,47.72
2023-05-21T21:39:26.174Z,47.91
2023-05-21T21:41:53.764Z,48.14
2023-05-21T21:44:21.555Z,47.97
2023-05-21T21:46:49.078Z,47.79
2023-05-21T21:49:19.467Z,47.91
2023-05-21T21:51:48.695Z,48.03
2023-05-21T21:54:16.498Z,48.03
2023-05-21T21:56:44.034Z,48.13
2023-05-21T21:59:11.838Z,48.17
2023-05-21T22:01:39.517Z,48.54
2023-05-21T22:04:07.467Z,48.93
2023-05-21T22:06:35.038Z,48.39
2023-05-21T22:09:02.570Z,49.41
2023-05-21T22:11:30.482Z,49.23
2023-05-21T22:14:00.342Z,48.61
2023-05-21T22:16:28.383Z,48.71
2023-05-21T22:18:58.103Z,48.77
2023-05-21T22:21:32.803Z,49.02
2023-05-21T22:24:00.682Z,48.69
2023-05-21T22:26:28.285Z,48.81
2023-05-21T22:28:55.861Z,48.91
2023-05-21T22:31:23.687Z,49.01
2023-05-21T22:33:51.273Z,49.02
2023-05-21T22:36:18.827Z,49.12
2023-05-21T22:38:46.556Z,48.58
2023-05-21T22:41:14.057Z,48.63
2023-05-21T22:43:41.542Z,48.46
2023-05-21T22:46:09.363Z,48.74
2023-05-21T22:48:37.324Z,48.93
2023-05-21T22:51:05.523Z,49.30
2023-05-21T22:53:33.487Z,49.48
2023-05-21T22:56:01.142Z,48.38
2023-05-21T22:58:28.901Z,48.56
2023-05-21T23:00:56.698Z,48.49
2023-05-21T23:03:24.276Z,48.31
2023-05-21T23:05:51.786Z,48.18
2023-05-21T23:08:19.851Z,47.86
2023-05-21T23:10:47.365Z,47.98
2023-05-21T23:13:14.925Z,47.96
2023-05-21T23:15:44.014Z,47.04
2023-05-21T23:18:11.802Z,47.25
2023-05-21T23:20:41.254Z,47.55
2023-05-21T23:23:10.142Z,47.38
2023-05-21T23:25:37.599Z,47.34
2023-05-21T23:28:05.189Z,47.66
2023-05-21T23:30:32.928Z,47.20
2023-05-21T23:33:00.663Z,47.22
2023-05-21T23:35:28.229Z,46.81
2023-05-21T23:37:56.208Z,46.74
2023-05-21T23:40:23.695Z,46.60
2023-05-21T23:42:51.334Z,46.81
2023-05-21T23:45:19.090Z,46.90
2023-05-21T23:47:46.833Z,46.59
2023-05-21T23:50:14.572Z,46.54
2023-05-21T23:52:42.478Z,46.50
2023-05-21T23:55:12.658Z,46.12
2023-05-21T23:57:41.066Z,45.96
